Terminal Aerodrome Forecast
Issued by NWS

Home | Current Version | Previous Version | Graphics & Text | Print | Product List | Glossary Off
Versions: 1 2 3 4 5 6 7 8 9 10 11 12 13

000
FTUS43 KBIS 200544
TAFJMS
TAF
KJMS 200544Z 2006/2106 15009KT 3SM BR BKN120 OVC150
     FM200800 17007KT 2SM BR VCSH OVC080
     FM201100 22006KT 3SM BR VCSH OVC045
     FM201500 30010KT 3SM BR VCSH OVC015
     FM201700 30014KT P6SM VCSH BKN050
     FM201900 29016KT P6SM SCT180
     FM210200 25009KT P6SM SKC=

USA.gov is the U.S. government's official web portal to all federal, state and local government web resources and services.